Terminal Aerodrome Forecast
Issued by NWS Memphis, TN

Home | Current Version | Previous Version | Text Only | Print | Product List | Glossary On
Versions: 1 2 3 4 5 6 7 8 9 10 11 12 13 14 15 16 17 18 19 20
000
FTUS44 KMEG 041348 AAA
TAFJBR
TAF AMD
KJBR 041348Z 0414/0512 00000KT 3SM BR BKN005 OVC020
      TEMPO 0414/0416 2SM BR OVC002
     FM041600 12005KT P6SM BKN020 OVC150
     FM041800 18007KT P6SM VCTS SCT030CB OVC150
     FM050300 19003KT P6SM SCT030 OVC150
     FM050800 22003KT 4SM BR SKC=

USA.gov is the U.S. government's official web portal to all federal, state and local government web resources and services.